createdAt,value
2024-05-09T00:00:36.191Z,85.37
2024-05-09T00:03:07.894Z,85.52
2024-05-09T00:05:35.818Z,85.36
2024-05-09T00:08:02.823Z,85.62
2024-05-09T00:10:35.967Z,85.42
2024-05-09T00:13:05.914Z,85.74
2024-05-09T00:15:33.498Z,85.86
2024-05-09T00:18:00.690Z,85.79
2024-05-09T00:20:35.956Z,85.46
2024-05-09T00:23:07.456Z,85.53
2024-05-09T00:25:34.791Z,85.55
2024-05-09T00:28:01.772Z,85.42
2024-05-09T00:30:34.142Z,85.74
2024-05-09T00:33:07.683Z,85.96
2024-05-09T00:35:35.884Z,85.76
2024-05-09T00:38:02.889Z,85.80
2024-05-09T00:40:41.001Z,85.82
2024-05-09T00:43:14.321Z,86.03
2024-05-09T00:45:41.896Z,85.81
2024-05-09T00:48:11.064Z,85.89
2024-05-09T00:50:41.939Z,85.83
2024-05-09T00:53:14.192Z,86.36
2024-05-09T00:55:41.791Z,86.21
2024-05-09T00:58:12.016Z,86.08
2024-05-09T01:00:40.939Z,85.82
2024-05-09T01:03:11.677Z,86.26
2024-05-09T01:05:40.587Z,86.09
2024-05-09T01:08:09.784Z,85.81
2024-05-09T01:10:37.284Z,86.00
2024-05-09T01:13:04.935Z,85.90
2024-05-09T01:15:32.075Z,86.25
2024-05-09T01:18:01.508Z,86.31
2024-05-09T01:20:39.115Z,86.56
2024-05-09T01:23:09.608Z,86.32
2024-05-09T01:25:36.938Z,86.22
2024-05-09T01:28:03.769Z,86.21
2024-05-09T01:30:34.989Z,86.43
2024-05-09T01:33:05.270Z,86.18
2024-05-09T01:35:33.117Z,86.37
2024-05-09T01:37:59.977Z,86.60
2024-05-09T01:40:36.262Z,86.34
2024-05-09T01:43:06.436Z,86.56
2024-05-09T01:45:33.330Z,86.32
2024-05-09T01:48:00.671Z,86.23
2024-05-09T01:52:57.175Z,86.30
2024-05-09T01:55:23.916Z,86.36
2024-05-09T01:57:51.535Z,86.33
2024-05-09T02:00:26.328Z,86.55
2024-05-09T02:03:01.441Z,86.44
2024-05-09T02:05:28.550Z,86.42
2024-05-09T02:07:55.343Z,86.62
2024-05-09T02:10:26.528Z,86.48
2024-05-09T02:12:58.855Z,86.38
2024-05-09T02:15:25.551Z,86.43
2024-05-09T02:17:52.423Z,86.46
2024-05-09T02:20:29.759Z,86.39
2024-05-09T02:23:03.621Z,86.49
2024-05-09T02:25:30.515Z,86.59
2024-05-09T02:27:57.301Z,86.58
2024-05-09T02:30:31.062Z,86.52
2024-05-09T02:33:06.127Z,86.76
2024-05-09T02:35:33.059Z,86.75
2024-05-09T02:38:00.046Z,86.69
2024-05-09T02:40:35.558Z,86.42
2024-05-09T02:43:05.476Z,86.60
2024-05-09T02:45:32.401Z,86.79
2024-05-09T02:47:59.554Z,86.73
2024-05-09T02:50:34.184Z,86.65
2024-05-09T02:53:05.419Z,86.51
2024-05-09T02:55:32.484Z,86.34
2024-05-09T02:57:59.353Z,86.22
2024-05-09T03:00:34.742Z,86.48
2024-05-09T03:03:08.536Z,86.65
2024-05-09T03:05:36.868Z,86.37
2024-05-09T03:08:04.174Z,86.36
2024-05-09T03:10:35.969Z,86.62
2024-05-09T03:13:14.115Z,86.79
2024-05-09T03:15:42.625Z,86.56
2024-05-09T03:18:10.058Z,86.50
2024-05-09T03:20:38.063Z,86.34
2024-05-09T03:23:08.165Z,86.77
2024-05-09T03:25:35.986Z,86.62
2024-05-09T03:28:02.788Z,86.75
2024-05-09T03:30:38.139Z,86.51
2024-05-09T03:33:13.866Z,86.70
2024-05-09T03:35:41.750Z,86.49
2024-05-09T03:38:08.549Z,86.46
2024-05-09T03:40:35.350Z,86.47
2024-05-09T03:43:02.004Z,86.50
2024-05-09T03:45:28.709Z,86.70
2024-05-09T03:47:55.603Z,86.47
2024-05-09T03:50:29.837Z,86.49
2024-05-09T03:53:03.598Z,86.44
2024-05-09T03:55:30.971Z,86.69
2024-05-09T03:57:57.642Z,86.47
2024-05-09T04:00:31.367Z,86.80
2024-05-09T04:03:06.257Z,86.36
2024-05-09T04:05:35.005Z,86.48
2024-05-09T04:08:02.149Z,86.55
2024-05-09T04:10:33.481Z,86.50
2024-05-09T04:13:02.050Z,86.69
2024-05-09T04:15:28.906Z,86.68
2024-05-09T04:17:56.041Z,86.27
2024-05-09T04:20:33.610Z,86.41
2024-05-09T04:23:06.257Z,86.58
2024-05-09T04:25:33.404Z,86.88
2024-05-09T04:28:00.061Z,86.46
2024-05-09T04:30:36.004Z,86.76
2024-05-09T04:33:07.129Z,86.58
2024-05-09T04:35:35.222Z,86.74
2024-05-09T04:38:02.191Z,86.36
2024-05-09T04:40:33.935Z,86.48
2024-05-09T04:43:04.213Z,86.84
2024-05-09T04:45:31.072Z,86.55
2024-05-09T04:47:58.223Z,86.76
2024-05-09T04:50:33.375Z,86.76
2024-05-09T04:53:04.903Z,86.38
2024-05-09T04:55:33.068Z,86.41
2024-05-09T04:57:59.896Z,86.81
2024-05-09T05:00:34.643Z,86.36
2024-05-09T05:03:09.341Z,85.73
2024-05-09T05:05:38.117Z,85.52
2024-05-09T05:08:05.621Z,85.93
2024-05-09T05:10:36.217Z,85.86
2024-05-09T05:13:18.085Z,85.60
2024-05-09T05:15:57.409Z,85.92
2024-05-09T05:18:26.431Z,85.70
2024-05-09T05:20:56.496Z,85.89
2024-05-09T05:23:23.497Z,85.98
2024-05-09T05:25:53.078Z,86.22
2024-05-09T05:28:20.207Z,86.36
2024-05-09T05:30:47.112Z,86.27
2024-05-09T05:33:15.566Z,86.51
2024-05-09T05:35:42.623Z,86.25
2024-05-09T05:38:10.681Z,86.34
2024-05-09T05:40:38.883Z,86.39
2024-05-09T05:43:11.265Z,86.40
2024-05-09T05:45:39.036Z,86.69
2024-05-09T05:48:07.259Z,86.59
2024-05-09T05:50:37.179Z,86.69
2024-05-09T05:53:07.405Z,86.53
2024-05-09T05:55:34.920Z,86.51
2024-05-09T05:58:02.696Z,86.81
2024-05-09T06:00:35.526Z,86.44
2024-05-09T06:03:06.067Z,86.14
2024-05-09T06:05:33.155Z,86.22
2024-05-09T06:08:00.144Z,85.70
2024-05-09T06:10:36.964Z,85.48
2024-05-09T06:13:06.499Z,84.50
2024-05-09T06:15:33.203Z,84.62
2024-05-09T06:18:00.282Z,84.09
2024-05-09T06:20:34.917Z,83.40
2024-05-09T06:23:04.993Z,83.21
2024-05-09T06:25:31.788Z,82.83
2024-05-09T06:28:00.306Z,82.59
2024-05-09T06:30:36.519Z,82.09
2024-05-09T06:33:07.684Z,82.12
2024-05-09T06:35:34.991Z,81.76
2024-05-09T06:38:02.107Z,81.63
2024-05-09T06:40:36.797Z,81.33
2024-05-09T06:43:13.613Z,81.46
2024-05-09T06:45:40.674Z,81.10
2024-05-09T06:48:09.256Z,81.23
2024-05-09T06:50:38.326Z,81.22
2024-05-09T06:53:06.852Z,80.90
2024-05-09T06:55:33.750Z,80.72
2024-05-09T06:58:00.462Z,81.09
2024-05-09T07:00:35.088Z,80.77
2024-05-09T07:03:10.313Z,80.64
2024-05-09T07:05:37.703Z,80.51
2024-05-09T07:08:04.946Z,80.13
2024-05-09T07:10:35.163Z,80.24
2024-05-09T07:13:02.944Z,80.26
2024-05-09T07:15:29.578Z,80.10
2024-05-09T07:17:56.559Z,79.98
2024-05-09T07:20:32.382Z,79.55
2024-05-09T07:23:02.962Z,79.56
2024-05-09T07:25:30.495Z,79.44
2024-05-09T07:27:57.314Z,79.57
2024-05-09T07:30:32.523Z,79.18
2024-05-09T07:33:01.526Z,79.24
2024-05-09T07:35:29.106Z,79.11
2024-05-09T07:37:55.938Z,79.01
2024-05-09T07:40:32.319Z,79.43
2024-05-09T07:43:07.912Z,78.92
2024-05-09T07:52:32.510Z,78.40
2024-05-09T07:55:53.958Z,78.21
2024-05-09T07:58:22.328Z,78.18
2024-05-09T08:00:49.204Z,78.12
2024-05-09T08:03:16.134Z,77.92
2024-05-09T08:05:42.952Z,77.87
2024-05-09T08:08:11.322Z,77.53
2024-05-09T08:10:38.424Z,77.22
2024-05-09T08:13:05.359Z,76.84
2024-05-09T08:15:32.238Z,77.20
2024-05-09T08:18:00.896Z,76.81
2024-05-09T08:20:33.428Z,76.44
2024-05-09T08:23:01.798Z,76.10
2024-05-09T08:25:28.928Z,76.31
2024-05-09T08:27:55.638Z,75.95
2024-05-09T08:30:29.792Z,75.76
2024-05-09T08:33:04.069Z,75.77
2024-05-09T08:35:31.745Z,76.01
2024-05-09T08:37:58.528Z,75.67
2024-05-09T08:40:32.907Z,75.55
2024-05-09T08:43:03.251Z,75.44
2024-05-09T08:45:30.747Z,75.12
2024-05-09T08:48:00.114Z,75.01
2024-05-09T08:50:35.389Z,74.48
2024-05-09T08:53:05.514Z,74.41
2024-05-09T08:55:32.486Z,73.98
2024-05-09T08:58:03.598Z,73.73
2024-05-09T09:00:36.800Z,73.73
2024-05-09T09:03:09.245Z,74.01
2024-05-09T09:05:38.896Z,73.83
2024-05-09T09:08:08.208Z,73.94
2024-05-09T09:10:35.344Z,73.88
2024-05-09T09:13:04.677Z,73.58
2024-05-09T09:15:32.149Z,73.21
2024-05-09T09:18:01.906Z,73.04
2024-05-09T09:20:36.292Z,72.94
2024-05-09T09:23:04.593Z,72.86
2024-05-09T09:25:38.113Z,72.82
2024-05-09T09:28:06.966Z,72.56
2024-05-09T09:30:37.407Z,72.10
2024-05-09T09:33:06.275Z,71.85
2024-05-09T09:35:34.358Z,71.22
2024-05-09T09:38:03.418Z,71.50
2024-05-09T09:40:37.649Z,71.67
2024-05-09T09:43:14.552Z,71.31
2024-05-09T09:45:44.318Z,71.27
2024-05-09T09:48:14.621Z,70.82
2024-05-09T09:50:42.506Z,70.45
2024-05-09T09:53:09.948Z,70.15
2024-05-09T09:55:38.016Z,70.01
2024-05-09T09:58:08.776Z,70.00
2024-05-09T10:00:37.834Z,69.95
2024-05-09T10:03:05.348Z,69.80
2024-05-09T10:05:33.592Z,69.71
2024-05-09T10:08:05.887Z,68.79
2024-05-09T10:10:34.167Z,68.75
2024-05-09T10:13:08.673Z,68.65
2024-05-09T10:15:52.032Z,68.29
2024-05-09T10:18:28.048Z,68.66
2024-05-09T10:20:57.163Z,68.51
2024-05-09T10:23:27.917Z,68.49
2024-05-09T10:26:05.946Z,68.32
2024-05-09T10:28:35.697Z,67.29
2024-05-09T10:31:15.866Z,67.63
2024-05-09T10:33:47.903Z,67.19
2024-05-09T10:36:25.414Z,67.75
2024-05-09T10:38:55.386Z,67.82
2024-05-09T10:41:23.516Z,67.74
2024-05-09T10:43:51.037Z,67.28
2024-05-09T10:46:20.787Z,67.16
2024-05-09T10:48:49.259Z,67.12
2024-05-09T10:51:21.513Z,66.89
2024-05-09T10:53:48.681Z,66.33
2024-05-09T10:56:16.214Z,66.80
2024-05-09T10:58:43.138Z,66.90
2024-05-09T11:01:11.787Z,67.37
2024-05-09T11:03:40.260Z,67.38
2024-05-09T11:06:07.775Z,67.51
2024-05-09T11:08:39.791Z,67.74
2024-05-09T11:11:08.304Z,67.04
2024-05-09T11:13:37.278Z,67.76
2024-05-09T11:16:06.052Z,67.86
2024-05-09T11:18:37.798Z,67.80
2024-05-09T11:21:13.008Z,68.09
2024-05-09T11:23:40.606Z,68.14
2024-05-09T11:26:07.506Z,68.06
2024-05-09T11:28:35.582Z,68.28
2024-05-09T11:31:09.976Z,68.02
2024-05-09T11:33:39.283Z,67.93
2024-05-09T11:36:07.597Z,68.42
2024-05-09T11:38:34.332Z,68.88
2024-05-09T11:41:02.102Z,69.69
2024-05-09T11:43:28.836Z,69.77
2024-05-09T11:45:57.210Z,70.02
2024-05-09T11:48:25.125Z,70.06
2024-05-09T11:50:52.093Z,70.50
2024-05-09T11:53:18.715Z,70.54
2024-05-09T11:55:45.361Z,70.08
2024-05-09T11:58:14.766Z,70.12
2024-05-09T12:00:41.478Z,70.47
2024-05-09T12:03:08.292Z,70.52
2024-05-09T12:05:35.155Z,70.29
2024-05-09T12:08:02.426Z,70.14
2024-05-09T12:10:33.737Z,70.22
2024-05-09T12:13:04.908Z,70.33
2024-05-09T12:15:33.875Z,70.45
2024-05-09T12:18:03.411Z,70.20
2024-05-09T12:20:36.737Z,70.60
2024-05-09T12:23:06.259Z,70.44
2024-05-09T12:25:33.121Z,70.14
2024-05-09T12:28:00.207Z,69.74
2024-05-09T12:30:35.505Z,70.17
2024-05-09T12:33:07.285Z,70.05
2024-05-09T12:35:34.227Z,70.05
2024-05-09T12:38:00.859Z,69.95
2024-05-09T12:40:35.479Z,70.08
2024-05-09T12:43:08.836Z,70.33
2024-05-09T12:45:36.843Z,70.10
2024-05-09T12:48:06.872Z,70.43
2024-05-09T12:50:34.663Z,70.56
2024-05-09T12:53:02.762Z,70.28
2024-05-09T12:55:36.598Z,70.14
2024-05-09T12:58:08.884Z,69.51
2024-05-09T13:00:36.051Z,69.14
2024-05-09T13:03:03.187Z,69.50
2024-05-09T13:05:30.247Z,68.31
2024-05-09T13:07:57.458Z,68.47
2024-05-09T13:10:31.720Z,68.70
2024-05-09T13:13:00.766Z,68.48
2024-05-09T13:15:28.152Z,68.39
2024-05-09T13:17:57.919Z,68.04
2024-05-09T13:20:32.379Z,68.00
2024-05-09T13:23:02.275Z,68.22
2024-05-09T13:25:29.156Z,67.81
2024-05-09T13:27:56.966Z,67.70
2024-05-09T13:30:29.927Z,67.60
2024-05-09T13:33:06.090Z,67.40
2024-05-09T13:35:34.907Z,66.60
2024-05-09T13:38:02.661Z,66.44
2024-05-09T13:40:33.817Z,67.00
2024-05-09T13:43:03.483Z,66.40
2024-05-09T13:45:30.492Z,66.61
2024-05-09T13:47:57.540Z,66.75
2024-05-09T13:50:33.063Z,66.72
2024-05-09T13:53:02.831Z,66.80
2024-05-09T13:55:29.569Z,66.52
2024-05-09T13:57:56.712Z,66.55
2024-05-09T14:00:37.755Z,67.44
2024-05-09T14:03:10.824Z,67.83
2024-05-09T14:05:38.217Z,68.52
2024-05-09T14:08:05.682Z,68.47
2024-05-09T14:10:32.804Z,68.28
2024-05-09T14:13:00.384Z,68.35
2024-05-09T14:15:27.239Z,68.22
2024-05-09T14:17:54.928Z,67.28
2024-05-09T14:22:51.312Z,67.63
2024-05-09T14:25:18.041Z,67.51
2024-05-09T14:27:44.901Z,67.13
2024-05-09T14:30:18.413Z,66.77
2024-05-09T14:32:52.968Z,66.61
2024-05-09T14:35:19.824Z,66.75
2024-05-09T14:37:46.645Z,66.29
2024-05-09T14:40:30.328Z,65.78
2024-05-09T14:43:03.166Z,65.92
2024-05-09T14:45:30.149Z,65.54
2024-05-09T14:47:57.309Z,65.64
2024-05-09T14:50:34.386Z,65.70
2024-05-09T14:53:04.388Z,65.65
2024-05-09T14:55:31.179Z,65.72
2024-05-09T14:57:58.044Z,65.32
2024-05-09T15:00:29.028Z,65.63
2024-05-09T15:03:00.530Z,65.38
2024-05-09T15:05:27.510Z,65.28
2024-05-09T15:07:54.378Z,64.84
2024-05-09T15:10:27.512Z,65.06
2024-05-09T15:13:01.215Z,64.62
2024-05-09T15:15:27.932Z,64.89
2024-05-09T15:17:55.710Z,64.92
2024-05-09T15:20:31.012Z,64.59
2024-05-09T15:23:02.165Z,65.01
2024-05-09T15:25:29.032Z,64.17
2024-05-09T15:27:55.976Z,64.67
2024-05-09T15:32:52.438Z,64.84
2024-05-09T15:35:19.198Z,65.07
2024-05-09T15:37:48.207Z,64.90
2024-05-09T15:40:18.475Z,64.88
2024-05-09T15:42:52.401Z,64.57
2024-05-09T15:45:19.011Z,64.51
2024-05-09T15:47:45.782Z,64.53
2024-05-09T15:50:20.090Z,64.05
2024-05-09T15:52:50.633Z,64.63
2024-05-09T15:55:17.265Z,64.54
2024-05-09T15:57:46.100Z,64.29
2024-05-09T16:00:24.405Z,63.96
2024-05-09T16:02:55.709Z,63.80
2024-05-09T16:05:23.111Z,63.87
2024-05-09T16:07:49.962Z,63.46
2024-05-09T16:10:23.030Z,63.17
2024-05-09T16:12:52.747Z,63.50
2024-05-09T16:15:19.492Z,63.04
2024-05-09T16:17:46.567Z,63.49
2024-05-09T16:20:18.296Z,63.38
2024-05-09T16:22:52.425Z,63.70
2024-05-09T16:25:19.230Z,63.55
2024-05-09T16:27:46.086Z,63.33
2024-05-09T16:30:20.974Z,63.77
2024-05-09T16:32:54.110Z,63.46
2024-05-09T16:35:20.776Z,63.72
2024-05-09T16:37:47.831Z,63.37
2024-05-09T16:40:22.164Z,63.18
2024-05-09T16:42:56.763Z,63.43
2024-05-09T16:45:23.399Z,63.70
2024-05-09T16:47:50.502Z,63.69
2024-05-09T16:50:25.742Z,63.81
2024-05-09T16:52:55.779Z,63.57
2024-05-09T16:55:22.539Z,63.77
2024-05-09T16:57:49.792Z,63.75
2024-05-09T17:00:25.263Z,63.75
2024-05-09T17:02:58.304Z,64.43
2024-05-09T17:05:25.251Z,64.49
2024-05-09T17:07:51.959Z,64.84
2024-05-09T17:10:26.653Z,64.55
2024-05-09T17:12:58.882Z,65.00
2024-05-09T17:15:25.761Z,65.08
2024-05-09T17:17:52.609Z,65.36
2024-05-09T17:20:29.287Z,65.51
2024-05-09T17:23:00.524Z,65.91
2024-05-09T17:25:27.295Z,65.79
2024-05-09T17:27:54.527Z,65.62
2024-05-09T17:30:28.993Z,65.64
2024-05-09T17:33:02.186Z,65.82
2024-05-09T17:35:29.192Z,65.81
2024-05-09T17:37:56.582Z,65.93
2024-05-09T17:40:31.102Z,65.60
2024-05-09T17:43:01.955Z,65.59
2024-05-09T17:45:28.771Z,65.65
2024-05-09T17:47:55.890Z,65.66
2024-05-09T17:50:30.258Z,66.36
2024-05-09T17:53:01.761Z,66.83
2024-05-09T17:55:28.844Z,66.94
2024-05-09T17:57:55.815Z,67.53
2024-05-09T18:00:33.146Z,67.54
2024-05-09T18:03:05.725Z,67.74
2024-05-09T18:05:32.956Z,68.37
2024-05-09T18:08:00.036Z,68.16
2024-05-09T18:10:33.773Z,68.21
2024-05-09T18:13:10.809Z,68.84
2024-05-09T18:15:38.568Z,68.79
2024-05-09T18:18:06.356Z,69.06
2024-05-09T18:20:41.703Z,69.15
2024-05-09T18:23:13.523Z,69.36
2024-05-09T18:25:40.899Z,69.66
2024-05-09T18:28:08.164Z,69.54
2024-05-09T18:30:36.758Z,70.20
2024-05-09T18:33:06.472Z,69.95
2024-05-09T18:35:34.586Z,70.21
2024-05-09T18:38:01.367Z,70.45
2024-05-09T18:40:33.819Z,70.28
2024-05-09T18:43:05.618Z,70.50
2024-05-09T18:45:33.708Z,70.70
2024-05-09T18:48:00.745Z,70.64
2024-05-09T18:50:34.981Z,70.73
2024-05-09T18:53:12.964Z,71.13
2024-05-09T18:55:41.452Z,71.02
2024-05-09T18:58:08.408Z,70.91
2024-05-09T19:00:38.480Z,71.26
2024-05-09T19:03:10.264Z,71.20
2024-05-09T19:05:39.760Z,71.21
2024-05-09T19:08:07.886Z,71.07
2024-05-09T19:10:36.073Z,71.27
2024-05-09T19:13:08.454Z,71.39
2024-05-09T19:15:39.130Z,71.14
2024-05-09T19:18:06.583Z,70.90
2024-05-09T19:20:35.374Z,71.06
2024-05-09T19:23:04.097Z,71.14
2024-05-09T19:25:31.004Z,70.85
2024-05-09T19:27:58.013Z,70.90
2024-05-09T19:30:34.144Z,70.84
2024-05-09T19:33:06.387Z,70.79
2024-05-09T19:35:33.287Z,70.58
2024-05-09T19:38:00.214Z,70.63
2024-05-09T19:40:31.656Z,70.83
2024-05-09T19:43:01.460Z,70.72
2024-05-09T19:45:28.917Z,70.99
2024-05-09T19:47:56.517Z,70.82
2024-05-09T19:50:32.140Z,70.86
2024-05-09T19:53:06.739Z,71.19
2024-05-09T19:55:34.100Z,71.32
2024-05-09T19:58:04.861Z,71.11
2024-05-09T20:00:39.855Z,71.56
2024-05-09T20:03:10.103Z,71.44
2024-05-09T20:05:38.479Z,71.24
2024-05-09T20:08:06.271Z,71.49
2024-05-09T20:10:35.223Z,71.41
2024-05-09T20:13:04.598Z,71.35
2024-05-09T20:15:33.462Z,71.67
2024-05-09T20:18:00.232Z,71.61
2024-05-09T20:20:35.568Z,71.66
2024-05-09T20:23:06.386Z,71.83
2024-05-09T20:25:33.146Z,71.75
2024-05-09T20:27:59.971Z,72.14
2024-05-09T20:30:31.999Z,72.13
2024-05-09T20:33:02.725Z,72.24
2024-05-09T20:35:31.981Z,72.19
2024-05-09T20:37:58.924Z,72.40
2024-05-09T20:40:31.688Z,72.52
2024-05-09T20:43:02.125Z,72.54
2024-05-09T20:45:28.872Z,72.72
2024-05-09T20:47:56.038Z,72.94
2024-05-09T20:50:29.306Z,72.92
2024-05-09T20:53:03.951Z,73.14
2024-05-09T20:55:30.742Z,73.55
2024-05-09T20:57:57.715Z,73.51
2024-05-09T21:00:33.887Z,73.80
2024-05-09T21:03:06.846Z,73.89
2024-05-09T21:05:34.584Z,74.21
2024-05-09T21:08:01.770Z,74.31
2024-05-09T21:10:32.716Z,74.41
2024-05-09T21:13:01.390Z,74.51
2024-05-09T21:15:28.373Z,74.41
2024-05-09T21:17:55.319Z,74.67
2024-05-09T21:20:28.737Z,74.75
2024-05-09T21:22:58.308Z,75.01
2024-05-09T21:25:24.996Z,74.98
2024-05-09T21:27:51.910Z,75.16
2024-05-09T21:30:27.907Z,75.27
2024-05-09T21:33:04.689Z,75.51
2024-05-09T21:35:31.513Z,75.74
2024-05-09T21:37:58.160Z,75.71
2024-05-09T21:40:31.567Z,76.26
2024-05-09T21:43:01.576Z,76.20
2024-05-09T21:45:28.424Z,76.52
2024-05-09T21:47:55.293Z,76.49
2024-05-09T21:50:28.708Z,76.52
2024-05-09T21:53:03.766Z,77.04
2024-05-09T21:55:30.409Z,76.83
2024-05-09T21:57:57.378Z,76.91
2024-05-09T22:00:32.275Z,77.11
2024-05-09T22:03:03.756Z,77.36
2024-05-09T22:05:30.905Z,77.46
2024-05-09T22:07:57.731Z,77.51
2024-05-09T22:10:30.826Z,77.79
2024-05-09T22:13:01.438Z,77.81
2024-05-09T22:15:28.382Z,77.77
2024-05-09T22:17:56.277Z,78.09
2024-05-09T22:20:32.838Z,78.22
2024-05-09T22:23:04.075Z,78.17
2024-05-09T22:25:32.088Z,78.21
2024-05-09T22:28:00.037Z,78.20
2024-05-09T22:30:34.982Z,78.41
2024-05-09T22:33:06.539Z,78.74
2024-05-09T22:35:33.668Z,78.80
2024-05-09T22:38:00.425Z,78.95
2024-05-09T22:40:38.683Z,78.95
2024-05-09T22:43:13.614Z,78.86
2024-05-09T22:45:40.484Z,79.02
2024-05-09T22:48:08.464Z,79.01
2024-05-09T22:50:35.384Z,79.35
2024-05-09T22:53:02.304Z,79.59
2024-05-09T22:55:29.065Z,79.29
2024-05-09T22:57:56.061Z,79.57
2024-05-09T23:00:30.955Z,79.65
2024-05-09T23:03:03.200Z,79.98
2024-05-09T23:05:31.936Z,80.03
2024-05-09T23:08:01.181Z,79.58
2024-05-09T23:10:35.197Z,79.98
2024-05-09T23:13:04.511Z,79.92
2024-05-09T23:15:31.195Z,80.06
2024-05-09T23:17:58.661Z,79.85
2024-05-09T23:20:35.460Z,79.94
2024-05-09T23:23:09.608Z,79.97
2024-05-09T23:25:37.457Z,79.73
2024-05-09T23:28:04.702Z,79.59
2024-05-09T23:30:37.598Z,79.93
2024-05-09T23:33:08.360Z,80.07
2024-05-09T23:35:35.436Z,79.95
2024-05-09T23:38:02.097Z,80.07
2024-05-09T23:40:37.300Z,79.50
2024-05-09T23:43:07.793Z,79.60
2024-05-09T23:45:34.922Z,80.07
2024-05-09T23:48:01.911Z,79.68
2024-05-09T23:50:35.890Z,79.79
2024-05-09T23:53:06.948Z,79.51
2024-05-09T23:55:34.864Z,79.58
2024-05-09T23:58:01.851Z,79.36
